Latest Coastal Weather Observations for Port Hedland

IDW60701

Issued at 4:52 am WST Monday 2 March 2015 (issued every 10 minutes, with the page automatically refreshed every 10 minutes)

About coastal observations | Map of coastal stations | Coastal observations for WA | Marine services | Other Formats
Station Details ID: 004032 Name: PORT HEDLAND AIRPORT Lat: -20.37 Lon: 118.63 Height: 6.4 m
Data from the previous 72 hours. | See also: Recent months at Port Hedland
Date/Time
WST
Temp

°C
Wind Pressure Rain
since 9am
mm
Weather Cloud Vis
km
Sea
Height
m
Swell
Dir
 
Speed
knots
Gust
knots
hPa Trend Height
m
Period
s
Dir
02/04:30am 26.0 W 6 7 1006.4 - 0.0 - - 10 - - - -
02/04:00am 26.5 WSW 7 8 1006.3 - 0.0 - - 10 - - - -
02/03:30am 26.6 WSW 7 8 1006.5 - 0.0 - - 10 - - - -
02/03:00am 26.9 WSW 7 8 1006.6 - 0.0 - - 10 - - - -
02/02:30am 26.9 WSW 7 8 1006.6 - 0.0 - - 10 - - - -
02/02:00am 26.9 WSW 7 8 1006.7 - 0.0 - Partly cloudy 10 - - - -
02/01:30am 27.2 WSW 7 8 1006.9 - 0.0 - Partly cloudy 10 - - - -
02/01:00am 27.3 WSW 6 7 1007.0 - 0.0 - Partly cloudy 10 - - - -
02/12:30am 27.9 W 7 9 1007.1 - 0.0 - - 10 - - - -
02/12:00am 28.0 W 9 10 1007.1 - 0.0 - - 10 - - - -
 
Date/Time
WST
Temp

°C
Wind Pressure Rain
since 9am
mm
Weather Cloud Vis
km
Sea
Height
m
Swell
Dir
 
Speed
knots
Gust
knots
hPa Trend Height
m
Period
s
Dir
01/11:30pm 28.3 W 10 13 1007.1 - 0.0 - Partly cloudy 10 - - - -
01/11:00pm 28.5 W 10 14 1007.2 - 0.0 - - 10 - - - -
01/10:30pm 28.7 WNW 12 14 1007.3 - 0.0 - - 10 - - - -
01/10:00pm 28.8 WNW 12 15 1007.3 - 0.0 - - 10 - - - -
01/09:30pm 28.8 WNW 11 13 1007.3 - 0.0 - - 10 - - - -
01/09:00pm 28.9 WNW 9 13 1007.1 - 0.0 - - 10 - - - -
01/08:30pm 29.0 NW 11 15 1007.1 - 0.0 - - 10 - - - -
01/08:00pm 29.1 WNW 11 15 1006.6 - 0.0 - - 10 - - - -
01/07:30pm 29.2 NW 13 16 1006.5 - 0.0 - - 10 - - - -
01/07:00pm 29.4 NW 12 15 1006.2 - 0.0 - - 10 - - - -
01/06:30pm 29.7 NW 13 16 1006.0 - 0.0 - - 10 - - - -
01/06:00pm 30.4 NW 13 16 1005.7 - 0.0 - - 10 - - - -
01/05:30pm 30.9 NW 15 19 1005.5 - 0.0 - - 10 - - - -
01/05:00pm 31.4 NW 14 18 1005.2 - 0.0 - - 10 - - - -
01/04:30pm 31.5 NW 15 17 1005.0 - 0.0 - - 10 - - - -
01/04:00pm 32.0 NNW 15 19 1005.2 - 0.0 - - 10 - - - -
01/03:30pm 32.9 NNW 15 20 1005.2 - 0.0 - - 10 - - - -
01/03:00pm 33.7 NNW 13 18 1005.1 F 0.0 Fine Mostly cloudy 30 - - - -
01/02:30pm 33.2 N 13 17 1005.5 - 0.0 - Mostly clear 10 - - - -
01/02:00pm 33.4 NNW 12 16 1005.7 - 0.0 - Mostly clear 10 - - - -
01/01:30pm 33.3 NNW 12 18 1006.3 - 0.0 - - 10 - - - -
01/01:00pm 33.3 NNW 12 16 1006.6 - 0.0 - Partly cloudy 10 - - - -
01/12:30pm 32.9 N 9 15 1007.0 - 0.0 - Partly cloudy 10 - - - -
01/12:00pm 34.0 N 10 13 1007.4 F 0.0 Fine Mostly cloudy 30 - - - -
01/11:30am 32.7 N 10 15 1008.0 - 0.0 - Partly cloudy 10 - - - -
01/11:00am 32.7 NNE 9 11 1008.6 - 0.0 - Mostly clear 10 - - - -
01/10:30am 30.9 NE 5 8 1008.8 - 0.0 - - 10 - - - -
01/10:00am 30.6 N 5 6 1009.1 - 0.0 - - 10 - - - -
01/09:30am 29.9 NNW 3 5 1008.9 - 0.0 - Mostly clear 10 - - - -
01/09:00am 29.8 CALM 0 5 1008.8 R 0.0 Distant precip. Mostly cloudy 30 - - - -
01/08:30am 29.8 W 4 5 1008.5 - 0.0 - Mostly clear 10 - - - -
01/08:00am 29.6 WNW 7 10 1008.6 - 0.0 - Mostly clear 10 - - - -
01/07:30am 29.5 W 7 10 1008.2 - 0.0 - Mostly clear 10 - - - -
01/07:00am 28.2 W 5 6 1007.8 - 0.0 - Mostly clear 10 - - - -
01/06:30am 26.8 W 5 5 1007.7 - 0.0 - Mostly clear 10 - - - -
01/06:00am 26.7 W 5 5 1007.3 R 0.0 Distant precip. Mostly cloudy 30 - - - -
01/05:30am 27.2 WSW 5 6 1007.4 - 0.0 - Partly cloudy 10 - - - -
01/05:00am 27.7 S 7 8 1007.0 - 0.0 - Partly cloudy 10 - - - -
01/04:30am 27.9 S 5 7 1007.2 - 0.0 - Partly cloudy 10 - - - -
01/04:00am 27.8 SW 7 9 1006.8 - 0.0 - - 10 - - - -
01/03:30am 28.0 WSW 9 10 1006.5 - 0.0 - Partly cloudy 10 - - - -
01/03:00am 27.9 W 10 13 1005.8 - 0.0 - - 10 - - - -
01/02:30am 28.0 W 11 15 1005.8 - 0.0 - Partly cloudy 10 - - - -
01/02:00am 28.0 WSW 9 11 1006.3 - 0.0 - Partly cloudy 10 - - - -
01/01:30am 28.2 WSW 9 11 1006.7 - 0.0 - Partly cloudy 10 - - - -
01/01:00am 28.2 WSW 8 11 1006.9 - 0.0 - Partly cloudy 10 - - - -
01/12:30am 28.3 W 7 10 1007.3 - 0.0 - Partly cloudy 10 - - - -
01/12:00am 28.3 WSW 7 10 1007.4 - 0.0 - Mostly clear 10 - - - -
 
Date/Time
WST
Temp

°C
Wind Pressure Rain
since 9am
mm
Weather Cloud Vis
km
Sea
Height
m
Swell
Dir
 
Speed
knots
Gust
knots
hPa Trend Height
m
Period
s
Dir
28/11:30pm 28.6 W 10 13 1007.1 - 0.0 - Partly cloudy 10 - - - -
28/11:00pm 28.6 W 8 10 1007.5 - 0.0 - - 10 - - - -
28/10:30pm 28.9 W 10 13 1007.6 - 0.0 - Partly cloudy 10 - - - -
28/10:00pm 28.9 WNW 10 13 1007.7 - 0.0 - - 10 - - - -
28/09:30pm 29.1 NW 11 13 1007.7 - 0.0 - - 10 - - - -
28/09:00pm 29.3 NW 13 16 1007.2 - 0.0 - - 10 - - - -
28/08:30pm 29.3 NW 10 13 1007.5 - 0.0 - - 10 - - - -
28/08:00pm 29.4 NW 11 15 1007.0 - 0.0 - - 10 - - - -
28/07:30pm 29.4 NW 12 15 1006.6 - 0.0 - - 10 - - - -
28/07:00pm 29.6 NW 14 19 1005.9 - 0.0 - - 10 - - - -
28/06:30pm 29.9 NW 15 19 1005.1 - 0.0 - - 10 - - - -
28/06:00pm 30.7 NW 16 21 1005.0 - 0.0 - - 10 - - - -
28/05:30pm 31.2 NW 17 22 1004.6 - 0.0 - - 10 - - - -
28/05:00pm 32.3 NW 18 22 1004.5 - 0.0 - - 10 - - - -
28/04:30pm 32.3 NW 18 22 1004.5 - 0.0 - - 10 - - - -
28/04:00pm 32.9 NW 18 22 1004.7 - 0.0 - - 10 - - - -
28/03:30pm 34.1 NNW 17 21 1005.2 - 0.0 - - 10 - - - -
28/03:00pm 34.2 NW 15 20 1005.3 - 0.0 - - 10 - - - -
28/02:30pm 34.0 NW 17 21 1005.3 - 0.0 - - 10 - - - -
28/02:00pm 34.9 NNW 16 21 1005.5 - 0.0 - - 10 - - - -
28/01:30pm 34.2 NNW 14 18 1005.8 - 0.0 - - 10 - - - -
28/01:00pm 34.2 NNW 13 18 1006.0 - 0.0 - - 10 - - - -
28/12:30pm 34.9 NNW 12 21 1006.6 - 0.0 - - 10 - - - -
28/12:00pm 33.5 N 12 17 1007.1 - 0.0 - - 10 - - - -
28/11:30am 33.4 NNW 11 15 1007.5 - 0.0 - - 10 - - - -
28/11:00am 34.3 N 9 13 1007.8 - 0.0 - - 10 - - - -
28/10:30am 34.4 NNW 7 10 1007.9 - 0.0 - - 10 - - - -
28/10:00am 32.5 NNW 7 12 1008.2 - 0.0 - - 10 - - - -
28/09:30am 33.2 NW 7 12 1008.2 - 0.0 - - 10 - - - -
28/09:00am 32.0 NW 6 11 1008.0 - 0.2 - - 10 - - - -
28/08:30am 32.2 NW 6 10 1008.0 - 0.2 - - 10 - - - -
28/08:00am 31.2 WNW 6 9 1008.0 - 0.2 - - 10 - - - -
28/07:30am 30.1 W 5 7 1007.8 - 0.2 - - 10 - - - -
28/07:00am 28.8 SSW 3 5 1007.7 - 0.2 - - 10 - - - -
28/06:30am 27.0 CALM 0 0 1007.3 - 0.2 - - 10 - - - -
28/06:00am 26.3 WSW 3 3 1007.0 - 0.2 - - 10 - - - -
28/05:30am 26.5 WSW 4 4 1007.1 - 0.2 - - 10 - - - -
28/05:00am 26.5 WSW 5 5 1007.0 - 0.2 - - 10 - - - -
28/04:30am 26.9 WSW 5 6 1006.7 - 0.2 - - 10 - - - -
28/04:00am 27.2 WSW 5 5 1006.5 - 0.2 - - 10 - - - -
28/03:30am 27.3 WSW 3 4 1006.4 - 0.2 - - 10 - - - -
28/03:00am 27.2 WSW 3 4 1006.2 - 0.2 - - 10 - - - -
28/02:30am 27.2 WSW 5 5 1006.4 - 0.2 - - 10 - - - -
28/02:00am 27.1 W 4 4 1006.3 - 0.2 - - 10 - - - -
28/01:30am 27.4 WSW 4 4 1006.5 - 0.2 - - 10 - - - -
28/01:00am 27.7 W 5 6 1006.8 - 0.2 - Partly cloudy 10 - - - -
28/12:30am 27.9 W 4 5 1006.9 - 0.2 - - 10 - - - -
28/12:00am 28.2 W 6 9 1007.3 - 0.2 - - 10 - - - -
 
Date/Time
WST
Temp

°C
Wind Pressure Rain
since 9am
mm
Weather Cloud Vis
km
Sea
Height
m
Swell
Dir
 
Speed
knots
Gust
knots
hPa Trend Height
m
Period
s
Dir
27/11:30pm 28.4 W 7 9 1007.7 - 0.2 - - 10 - - - -
27/11:00pm 28.6 W 7 9 1007.7 - 0.2 - - 10 - - - -
27/10:30pm 28.7 WNW 8 10 1007.7 - 0.2 - - 10 - - - -
27/10:00pm 28.8 WNW 7 10 1007.6 - 0.2 - - 10 - - - -
27/09:30pm 28.9 WNW 8 11 1007.3 - 0.2 - - 10 - - - -
27/09:00pm 29.1 WNW 10 14 1006.8 - 0.2 - - 10 - - - -
27/08:30pm 29.3 NW 9 12 1006.7 - 0.2 - - 10 - - - -
27/08:00pm 29.5 NW 10 11 1006.6 - 0.2 - - 10 - - - -
27/07:30pm 29.6 WNW 9 11 1005.9 - 0.2 - - 10 - - - -
27/07:00pm 29.7 NW 10 12 1005.3 - 0.2 - - 10 - - - -
27/06:30pm 30.2 NW 11 13 1004.8 - 0.2 - - 10 - - - -
27/06:00pm 31.2 NW 11 14 1004.4 - 0.2 - - 10 - - - -
27/05:30pm 31.7 NW 12 15 1004.0 - 0.2 - - 10 - - - -
27/05:00pm 32.9 NW 11 14 1003.9 - 0.2 - - 10 - - - -
27/04:30pm 33.8 NW 11 15 1003.8 - 0.2 - - 10 - - - -
27/04:00pm 33.6 NW 13 17 1003.5 - 0.2 - - 10 - - - -
27/03:30pm 34.1 NNW 12 17 1003.4 - 0.2 - - 10 - - - -
27/03:00pm 33.0 NNW 13 17 1003.8 - 0.2 - - 10 - - - -
27/02:30pm 34.1 NNW 14 19 1004.6 - 0.2 - - 10 - - - -
27/02:00pm 32.8 NNW 14 18 1005.4 - 0.2 - - 10 - - - -
27/01:30pm 33.5 N 16 21 1005.7 - 0.2 - - 10 - - - -
27/01:00pm 34.1 NNW 12 17 1005.9 - 0.2 - - 10 - - - -
27/12:30pm 34.3 NNW 10 15 1006.3 - 0.2 - - 10 - - - -
27/12:00pm 33.9 NNW 10 14 1006.3 - 0.2 - - 10 - - - -
27/11:30am 34.0 NNW 8 11 1006.6 - 0.2 - - 10 - - - -
27/11:00am 31.8 N 6 10 1006.7 - 0.0 - - 10 - - - -
27/10:30am 32.0 SSW 4 5 1006.6 - 0.0 - - 10 - - - -
27/10:00am 31.0 NNW 2 4 1006.9 - 0.0 - - 10 - - - -
27/09:30am 29.8 WNW 1 3 1007.1 - 0.0 - - 10 - - - -
27/09:00am 29.0 W 5 7 1007.0 - 0.0 - - 10 - - - -
27/08:30am 28.6 W 7 8 1006.8 - 0.0 - - 10 - - - -
27/08:00am 28.1 WNW 2 4 1007.1 - 0.0 - - 10 - - - -
27/07:30am 27.6 N 4 5 1007.2 - 0.0 - - 10 - - - -
27/07:00am 27.3 N 8 11 1007.1 - 0.0 - - 10 - - - -
27/06:30am 27.2 N 8 11 1006.9 - 0.0 - Partly cloudy 10 - - - -
27/06:00am 27.0 NE 9 13 1006.9 - 0.0 - Partly cloudy 10 - - - -
27/05:30am 27.1 ENE 12 16 1007.1 - 0.0 - - 10 - - - -
27/05:00am 26.9 E 14 20 1007.0 - 0.0 - Partly cloudy 10 - - - -

Other Formats:

Comma delimited format used in spreadsheet applications
http://www.bom.gov.au/fwo/IDW60701/IDW60701.94312.axf

JavaScript Object Notation format (JSON) in row-major order
http://www.bom.gov.au/fwo/IDW60701/IDW60701.94312.json